Time;durP1;ratioP1;P1;durP2;ratioP2;P2;SDS_P1;SDS_P2;PMS_P1;PMS_P2;Temp;Humidity;BMP_temperature;BMP_pressure;BME280_temperature;BME280_humidity;BME280_pressure;Samples;Min_cycle;Max_cycle;Signal;HPM_P1;HPM_P2
2023/01/21 00:01:44;;;;;;;;;;;;;;;;;;5015895;28;1316;-70
2023/01/21 00:04:09;;;;;;;;;;;;;;;;;;5033946;28;801;-70
2023/01/21 00:06:35;;;;;;;;;;;;;;;;;;5032296;28;1955;-70
2023/01/21 00:09:01;;;;;;;;;;;;;;;;;;5033974;28;849;-67
2023/01/21 00:11:26;;;;;;;;;;;;;;;;;;5033802;28;1102;-67
2023/01/21 00:13:52;;;;;;;;;;;;;;;;;;5033236;28;1003;-67
2023/01/21 00:16:17;;;;;;;;;;;;;;;;;;5033886;28;833;-67
2023/01/21 00:18:42;;;;;;;;;;;;;;;;;;5016151;28;1486;-68
2023/01/21 00:21:08;;;;;;;;;;;;;;;;;;5032746;28;881;-68
2023/01/21 00:23:33;;;;;;;;;;;;;;;;;;5033858;28;821;-70
2023/01/21 00:26:03;;;;;;;;;;;;;;;;;;5032631;28;1910;-70
2023/01/21 00:28:29;;;;;;;;;;;;;;;;;;5032471;28;1299;-70
2023/01/21 00:30:58;;;;;;;;;;;;;;;;;;5016011;28;1260;-70
2023/01/21 00:33:24;;;;;;;;;;;;;;;;;;5031855;28;1164;-70
2023/01/21 00:35:56;;;;;;;;;;;;;;;;;;5033741;28;840;-70
2023/01/21 00:38:21;;;;;;;;;;;;;;;;;;5031635;28;1199;-69
2023/01/21 00:40:47;;;;;;;;;;;;;;;;;;5033263;28;955;-70
2023/01/21 00:43:12;;;;;;;;;;;;;;;;;;5033207;28;917;-70
2023/01/21 00:45:37;;;;;;;;;;;;;;;;;;5032510;28;900;-70
2023/01/21 00:48:03;;;;;;;;;;;;;;;;;;5033097;28;1981;-70
2023/01/21 00:50:28;;;;;;;;;;;;;;;;;;5031668;28;829;-70
2023/01/21 00:52:53;;;;;;;;;;;;;;;;;;5031565;28;1196;-70
2023/01/21 00:55:19;;;;;;;;;;;;;;;;;;5033272;28;867;-70
2023/01/21 00:57:44;;;;;;;;;;;;;;;;;;5030937;28;1406;-70
2023/01/21 01:00:11;;;;;;;;;;;;;;;;;;5031636;28;1181;-70
2023/01/21 01:02:37;;;;;;;;;;;;;;;;;;5031370;28;1493;-70
2023/01/21 01:05:02;;;;;;;;;;;;;;;;;;5031031;28;1287;-70
2023/01/21 01:07:27;;;;;;;;;;;;;;;;;;5031171;28;1971;-70
2023/01/21 01:09:53;;;;;;;;;;;;;;;;;;5032633;28;1047;-70
2023/01/21 01:12:18;;;;;;;;;;;;;;;;;;5031501;28;1177;-70
2023/01/21 01:14:43;;;;;;;;;;;;;;;;;;5032132;28;853;-70
2023/01/21 01:17:08;;;;;;;;;;;;;;;;;;5031351;28;1390;-70
2023/01/21 01:19:34;;;;;;;;;;;;;;;;;;5031309;28;817;-70
2023/01/21 01:21:59;;;;;;;;;;;;;;;;;;5032168;28;897;-70
2023/01/21 01:24:24;;;;;;;;;;;;;;;;;;5031373;28;849;-70
2023/01/21 01:26:49;;;;;;;;;;;;;;;;;;5031081;28;1956;-70
2023/01/21 01:29:15;;;;;;;;;;;;;;;;;;5031073;28;1180;-70
2023/01/21 01:31:40;;;;;;;;;;;;;;;;;;5032365;28;1003;-70
2023/01/21 01:34:06;;;;;;;;;;;;;;;;;;5030950;28;1303;-70
2023/01/21 01:36:32;;;;;;;;;;;;;;;;;;5032283;28;1000;-70
2023/01/21 01:38:57;;;;;;;;;;;;;;;;;;5032566;28;904;-70
2023/01/21 01:41:26;;;;;;;;;;;;;;;;;;5030936;28;1240;-70
2023/01/21 01:44:01;;;;;;;;;;;;;;;;;;5032509;28;860;-70
2023/01/21 01:46:28;;;;;;;;;;;;;;;;;;5032026;28;1902;-71
2023/01/21 01:49:12;;;;;;;;;;;;;;;;;;5032346;28;837;-69
2023/01/21 01:51:49;;;;;;;;;;;;;;;;;;5032362;28;1050;-70
2023/01/21 01:54:16;;;;;;;;;;;;;;;;;;5028622;28;1223;-70
2023/01/21 01:56:45;;;;;;;;;;;;;;;;;;5027841;28;1213;-70
2023/01/21 01:59:10;;;;;;;;;;;;;;;;;;5029002;28;1272;-70
2023/01/21 02:01:36;;;;;;;;;;;;;;;;;;5014041;28;1191;-70
2023/01/21 02:04:05;;;;;;;;;;;;;;;;;;5030618;28;1188;-69
2023/01/21 02:06:30;;;;;;;;;;;;;;;;;;5030262;28;1975;-70
2023/01/21 02:08:56;;;;;;;;;;;;;;;;;;5031959;28;822;-70
2023/01/21 02:11:21;;;;;;;;;;;;;;;;;;5029582;28;1342;-70
2023/01/21 02:13:52;;;;;;;;;;;;;;;;;;5030855;28;837;-67
2023/01/21 02:16:21;;;;;;;;;;;;;;;;;;5030680;28;1223;-67
2023/01/21 02:19:06;;;;;;;;;;;;;;;;;;5030316;28;1116;-67
2023/01/21 02:21:46;;;;;;;;;;;;;;;;;;5019373;28;1307;-67
2023/01/21 02:24:20;;;;;;;;;;;;;;;;;;5030073;28;1207;-69
2023/01/21 02:27:04;;;;;;;;;;;;;;;;;;5030129;28;1898;-70
2023/01/21 02:29:32;;;;;;;;;;;;;;;;;;5030959;28;1077;-70
2023/01/21 02:31:57;;;;;;;;;;;;;;;;;;5031189;28;884;-70
2023/01/21 02:34:35;;;;;;;;;;;;;;;;;;5031071;28;903;-69
2023/01/21 02:37:03;;;;;;;;;;;;;;;;;;5031140;28;967;-70
2023/01/21 02:39:34;;;;;;;;;;;;;;;;;;5030155;28;1187;-70
2023/01/21 02:42:05;;;;;;;;;;;;;;;;;;5031388;28;1003;-70
2023/01/21 02:44:38;;;;;;;;;;;;;;;;;;5029815;28;1424;-69
2023/01/21 02:47:18;;;;;;;;;;;;;;;;;;5029873;28;1969;-70
2023/01/21 02:49:59;;;;;;;;;;;;;;;;;;5030150;28;1131;-70
2023/01/21 02:52:26;;;;;;;;;;;;;;;;;;5031013;28;896;-69
2023/01/21 02:54:56;;;;;;;;;;;;;;;;;;5030062;28;1200;-70
2023/01/21 02:57:40;;;;;;;;;;;;;;;;;;5029808;28;1331;-70
2023/01/21 03:00:10;;;;;;;;;;;;;;;;;;5031510;28;909;-70
2023/01/21 03:02:55;;;;;;;;;;;;;;;;;;5030232;28;1135;-70
2023/01/21 03:05:29;;;;;;;;;;;;;;;;;;5030608;28;1319;-70
2023/01/21 03:08:20;;;;;;;;;;;;;;;;;;5031207;28;1894;-70
2023/01/21 03:10:52;;;;;;;;;;;;;;;;;;5030766;28;1171;-70
2023/01/21 03:19:02;;;;;;;;;;;;;;;;;;5035692;28;767;-69
2023/01/21 03:21:29;;;;;;;;;;;;;;;;;;5033864;28;1494;-69
2023/01/21 03:23:56;;;;;;;;;;;;;;;;;;5033748;28;1306;-70
2023/01/21 03:26:32;;;;;;;;;;;;;;;;;;5035012;28;1968;-69
2023/01/21 03:28:59;;;;;;;;;;;;;;;;;;5034899;28;900;-69
2023/01/21 03:31:30;;;;;;;;;;;;;;;;;;5033637;28;1210;-70
2023/01/21 03:33:59;;;;;;;;;;;;;;;;;;5034974;28;849;-70
2023/01/21 03:36:37;;;;;;;;;;;;;;;;;;5035181;28;920;-70
2023/01/21 03:39:29;;;;;;;;;;;;;;;;;;5033254;28;1334;-70
2023/01/21 03:41:54;;;;;;;;;;;;;;;;;;5010551;28;1386;-70
2023/01/21 03:44:20;;;;;;;;;;;;;;;;;;5034954;28;830;-70
2023/01/21 03:46:45;;;;;;;;;;;;;;;;;;5034372;28;1965;-70
2023/01/21 03:49:21;;;;;;;;;;;;;;;;;;5033069;28;1239;-69
2023/01/21 03:51:49;;;;;;;;;;;;;;;;;;5034050;28;1239;-70
2023/01/21 03:54:14;;;;;;;;;;;;;;;;;;5034020;28;1207;-70
2023/01/21 03:56:40;;;;;;;;;;;;;;;;;;5034777;28;872;-69
2023/01/21 03:59:05;;;;;;;;;;;;;;;;;;5035078;28;849;-69
2023/01/21 04:01:30;;;;;;;;;;;;;;;;;;5034779;28;908;-69
2023/01/21 04:03:56;;;;;;;;;;;;;;;;;;5016984;28;1264;-71
2023/01/21 04:06:22;;;;;;;;;;;;;;;;;;5033123;28;1993;-70
2023/01/21 04:08:47;;;;;;;;;;;;;;;;;;5016929;28;1255;-70
2023/01/21 04:11:12;;;;;;;;;;;;;;;;;;5033836;28;1221;-67
2023/01/21 04:13:37;;;;;;;;;;;;;;;;;;5033834;28;916;-67
2023/01/21 04:16:03;;;;;;;;;;;;;;;;;;5032465;28;762;-67
2023/01/21 04:18:28;;;;;;;;;;;;;;;;;;5015559;28;1259;-67
2023/01/21 04:20:53;;;;;;;;;;;;;;;;;;5033190;28;884;-67
2023/01/21 04:23:19;;;;;;;;;;;;;;;;;;5032606;28;837;-68
2023/01/21 04:25:46;;;;;;;;;;;;;;;;;;5032614;28;913;-67
2023/01/21 04:28:11;;;;;;;;;;;;;;;;;;5032228;28;1973;-70
2023/01/21 04:30:37;;;;;;;;;;;;;;;;;;5033618;28;813;-69
2023/01/21 04:33:02;;;;;;;;;;;;;;;;;;5033632;28;912;-69
2023/01/21 04:35:27;;;;;;;;;;;;;;;;;;5016001;28;1173;-71
2023/01/21 04:37:53;;;;;;;;;;;;;;;;;;5033862;28;1035;-71
2023/01/21 04:40:18;;;;;;;;;;;;;;;;;;5032827;28;778;-71
2023/01/21 04:42:43;;;;;;;;;;;;;;;;;;5032463;28;916;-70
2023/01/21 04:45:09;;;;;;;;;;;;;;;;;;5032128;28;907;-71
2023/01/21 04:47:34;;;;;;;;;;;;;;;;;;5032096;28;1906;-72
2023/01/21 04:50:00;;;;;;;;;;;;;;;;;;5033577;28;963;-71
2023/01/21 04:52:26;;;;;;;;;;;;;;;;;;5033669;28;865;-71
2023/01/21 04:54:52;;;;;;;;;;;;;;;;;;5032039;28;1239;-71
2023/01/21 04:57:17;;;;;;;;;;;;;;;;;;5032993;28;817;-71
2023/01/21 04:59:42;;;;;;;;;;;;;;;;;;5031840;28;938;-71
2023/01/21 05:02:08;;;;;;;;;;;;;;;;;;5014847;28;1205;-71
2023/01/21 05:04:33;;;;;;;;;;;;;;;;;;5031400;28;1241;-71
2023/01/21 05:06:58;;;;;;;;;;;;;;;;;;5014604;28;1975;-71
2023/01/21 05:09:24;;;;;;;;;;;;;;;;;;5032690;28;817;-71
2023/01/21 05:11:49;;;;;;;;;;;;;;;;;;5032504;28;1209;-71
2023/01/21 05:14:14;;;;;;;;;;;;;;;;;;5031273;28;1051;-71
2023/01/21 05:16:39;;;;;;;;;;;;;;;;;;5031158;28;1359;-71
2023/01/21 05:19:05;;;;;;;;;;;;;;;;;;5031236;28;1468;-71
2023/01/21 05:21:31;;;;;;;;;;;;;;;;;;5031101;28;919;-71
2023/01/21 05:23:56;;;;;;;;;;;;;;;;;;5031287;28;1196;-69
2023/01/21 05:26:21;;;;;;;;;;;;;;;;;;5032329;28;1909;-69
2023/01/21 05:28:47;;;;;;;;;;;;;;;;;;5030893;28;884;-68
2023/01/21 05:31:12;;;;;;;;;;;;;;;;;;5032123;28;908;-69
2023/01/21 05:33:37;;;;;;;;;;;;;;;;;;5013340;28;1449;-69
2023/01/21 05:36:03;;;;;;;;;;;;;;;;;;5030872;28;841;-69
2023/01/21 05:38:28;;;;;;;;;;;;;;;;;;5031745;28;897;-69
2023/01/21 05:40:57;;;;;;;;;;;;;;;;;;5031010;28;1395;-69
2023/01/21 05:43:23;;;;;;;;;;;;;;;;;;5030588;28;1339;-68
2023/01/21 05:45:48;;;;;;;;;;;;;;;;;;5014588;28;1256;-71
2023/01/21 05:48:13;;;;;;;;;;;;;;;;;;5030125;28;1905;-71
2023/01/21 05:50:39;;;;;;;;;;;;;;;;;;5031866;28;848;-71
2023/01/21 05:53:04;;;;;;;;;;;;;;;;;;5032376;28;830;-71
2023/01/21 05:55:29;;;;;;;;;;;;;;;;;;5031749;28;955;-70
2023/01/21 05:57:54;;;;;;;;;;;;;;;;;;5030786;28;1136;-71
2023/01/21 06:00:20;;;;;;;;;;;;;;;;;;5030742;28;1272;-71
2023/01/21 06:02:46;;;;;;;;;;;;;;;;;;5030133;28;1193;-71
2023/01/21 06:05:11;;;;;;;;;;;;;;;;;;5030778;28;1231;-71
2023/01/21 06:07:36;;;;;;;;;;;;;;;;;;5032178;28;1879;-71
2023/01/21 06:10:02;;;;;;;;;;;;;;;;;;5032125;28;1054;-71
2023/01/21 06:12:28;;;;;;;;;;;;;;;;;;5031961;28;853;-71
2023/01/21 06:14:53;;;;;;;;;;;;;;;;;;5014552;28;1220;-71
2023/01/21 06:17:18;;;;;;;;;;;;;;;;;;5030709;28;1249;-71
2023/01/21 06:19:43;;;;;;;;;;;;;;;;;;5030701;28;952;-71
2023/01/21 06:22:12;;;;;;;;;;;;;;;;;;5032079;28;825;-71
2023/01/21 06:24:38;;;;;;;;;;;;;;;;;;5031795;28;908;-71
2023/01/21 06:27:03;;;;;;;;;;;;;;;;;;5013418;28;1891;-71
2023/01/21 06:29:28;;;;;;;;;;;;;;;;;;5009383;28;1243;-71
2023/01/21 06:31:53;;;;;;;;;;;;;;;;;;5010396;28;1306;-71
2023/01/21 06:34:19;;;;;;;;;;;;;;;;;;5029588;28;1165;-71
2023/01/21 06:36:44;;;;;;;;;;;;;;;;;;5029299;28;1162;-71
2023/01/21 06:39:09;;;;;;;;;;;;;;;;;;5030428;28;833;-71
2023/01/21 06:41:35;;;;;;;;;;;;;;;;;;5029450;28;938;-71
2023/01/21 06:44:00;;;;;;;;;;;;;;;;;;5031477;28;865;-71
2023/01/21 06:46:25;;;;;;;;;;;;;;;;;;5033621;28;1949;-71
2023/01/21 06:48:52;;;;;;;;;;;;;;;;;;5033891;28;1285;-71
2023/01/21 06:51:17;;;;;;;;;;;;;;;;;;5017779;28;1219;-71
2023/01/21 06:53:43;;;;;;;;;;;;;;;;;;5033898;28;1182;-71
2023/01/21 06:56:08;;;;;;;;;;;;;;;;;;5035200;28;908;-70
2023/01/21 06:58:33;;;;;;;;;;;;;;;;;;5033308;28;894;-70
2023/01/21 07:00:59;;;;;;;;;;;;;;;;;;5035228;28;833;-71
2023/01/21 07:03:24;;;;;;;;;;;;;;;;;;5034106;28;1318;-73
2023/01/21 07:05:49;;;;;;;;;;;;;;;;;;5034197;28;1214;-73
2023/01/21 07:08:15;;;;;;;;;;;;;;;;;;5033899;28;1906;-76
2023/01/21 07:10:40;;;;;;;;;;;;;;;;;;5033671;28;1098;-73
2023/01/21 07:13:05;;;;;;;;;;;;;;;;;;5034103;28;1304;-73
2023/01/21 07:15:30;;;;;;;;;;;;;;;;;;5033789;28;893;-73
2023/01/21 07:17:56;;;;;;;;;;;;;;;;;;5033745;28;1364;-72
2023/01/21 07:20:21;;;;;;;;;;;;;;;;;;5033837;28;1322;-72
2023/01/21 07:22:47;;;;;;;;;;;;;;;;;;5033688;28;915;-73
2023/01/21 07:25:12;;;;;;;;;;;;;;;;;;5034361;28;1225;-72
2023/01/21 07:27:39;;;;;;;;;;;;;;;;;;5033174;28;1980;-72
2023/01/21 07:30:05;;;;;;;;;;;;;;;;;;5034891;28;993;-70
2023/01/21 07:32:30;;;;;;;;;;;;;;;;;;5033126;28;1410;-69
2023/01/21 07:34:56;;;;;;;;;;;;;;;;;;5033545;28;962;-72
2023/01/21 07:37:21;;;;;;;;;;;;;;;;;;5032974;28;1349;-70
2023/01/21 07:39:47;;;;;;;;;;;;;;;;;;5017120;28;1421;-71
2023/01/21 07:42:12;;;;;;;;;;;;;;;;;;5033483;28;1267;-72
2023/01/21 07:44:37;;;;;;;;;;;;;;;;;;5032710;28;1170;-70
2023/01/21 07:47:02;;;;;;;;;;;;;;;;;;5033340;28;1923;-70
2023/01/21 07:49:28;;;;;;;;;;;;;;;;;;5033057;28;1255;-73
2023/01/21 07:51:56;;;;;;;;;;;;;;;;;;5033223;28;1177;-72
2023/01/21 07:54:22;;;;;;;;;;;;;;;;;;5033514;28;1433;-73
2023/01/21 07:56:47;;;;;;;;;;;;;;;;;;5033622;28;1042;-72
2023/01/21 07:59:12;;;;;;;;;;;;;;;;;;5016817;28;1183;-73
2023/01/21 08:01:38;;;;;;;;;;;;;;;;;;5032617;28;1212;-72
2023/01/21 08:04:03;;;;;;;;;;;;;;;;;;5031061;28;1224;-72
2023/01/21 08:06:31;;;;;;;;;;;;;;;;;;5031094;28;1961;-72
2023/01/21 08:08:56;;;;;;;;;;;;;;;;;;5034477;28;944;-72
2023/01/21 08:11:22;;;;;;;;;;;;;;;;;;5032898;28;1450;-71
2023/01/21 08:13:48;;;;;;;;;;;;;;;;;;5032517;28;1211;-72
2023/01/21 08:16:13;;;;;;;;;;;;;;;;;;5032528;28;1276;-72
2023/01/21 08:18:38;;;;;;;;;;;;;;;;;;5032346;28;841;-72
2023/01/21 08:21:04;;;;;;;;;;;;;;;;;;5032438;28;1337;-72
2023/01/21 08:23:29;;;;;;;;;;;;;;;;;;5031923;28;1298;-72
2023/01/21 08:25:54;;;;;;;;;;;;;;;;;;5033389;28;813;-72
2023/01/21 08:28:20;;;;;;;;;;;;;;;;;;5033605;28;1906;-72
2023/01/21 08:30:45;;;;;;;;;;;;;;;;;;5032131;28;1077;-69
2023/01/21 08:33:11;;;;;;;;;;;;;;;;;;5032660;28;1111;-69
2023/01/21 08:35:36;;;;;;;;;;;;;;;;;;5031787;28;1228;-69
2023/01/21 08:38:01;;;;;;;;;;;;;;;;;;5033451;28;948;-69
2023/01/21 08:40:27;;;;;;;;;;;;;;;;;;5032053;28;1141;-69
2023/01/21 08:42:58;;;;;;;;;;;;;;;;;;5032059;28;921;-69
2023/01/21 08:45:24;;;;;;;;;;;;;;;;;;5031469;28;1190;-68
2023/01/21 08:47:50;;;;;;;;;;;;;;;;;;5032871;28;1934;-69
2023/01/21 08:50:15;;;;;;;;;;;;;;;;;;5033450;28;932;-69
2023/01/21 08:52:41;;;;;;;;;;;;;;;;;;5031725;28;976;-69
2023/01/21 08:55:06;;;;;;;;;;;;;;;;;;5032064;28;1247;-69
2023/01/21 08:57:32;;;;;;;;;;;;;;;;;;5032669;28;834;-69
2023/01/21 08:59:57;;;;;;;;;;;;;;;;;;5031256;28;1202;-69
2023/01/21 09:02:22;;;;;;;;;;;;;;;;;;5015063;28;1314;-66
2023/01/21 09:04:49;;;;;;;;;;;;;;;;;;5014544;28;1217;-69
2023/01/21 09:07:14;;;;;;;;;;;;;;;;;;5032850;28;1899;-69
2023/01/21 09:09:40;;;;;;;;;;;;;;;;;;5031274;28;1192;-69
2023/01/21 09:12:05;;;;;;;;;;;;;;;;;;5014971;28;1311;-66
2023/01/21 09:14:31;;;;;;;;;;;;;;;;;;5031528;28;1396;-66
2023/01/21 09:16:56;;;;;;;;;;;;;;;;;;5031608;28;916;-66
2023/01/21 09:19:22;;;;;;;;;;;;;;;;;;5031387;28;1189;-69
2023/01/21 09:21:48;;;;;;;;;;;;;;;;;;5015579;28;1256;-71
2023/01/21 09:24:13;;;;;;;;;;;;;;;;;;5031956;28;1314;-72
2023/01/21 09:26:42;;;;;;;;;;;;;;;;;;5015005;28;1969;-71
2023/01/21 09:29:08;;;;;;;;;;;;;;;;;;5033738;28;912;-71
2023/01/21 09:31:34;;;;;;;;;;;;;;;;;;5032813;28;931;-71
2023/01/21 09:34:00;;;;;;;;;;;;;;;;;;5031766;28;969;-71
2023/01/21 09:36:27;;;;;;;;;;;;;;;;;;5033122;28;1053;-71
2023/01/21 09:38:53;;;;;;;;;;;;;;;;;;5032041;28;1283;-70
2023/01/21 09:41:18;;;;;;;;;;;;;;;;;;5031916;28;1436;-71
2023/01/21 09:43:53;;;;;;;;;;;;;;;;;;5031864;28;1169;-71
2023/01/21 09:46:37;;;;;;;;;;;;;;;;;;5032150;28;1907;-70
2023/01/21 09:49:05;;;;;;;;;;;;;;;;;;5031227;28;1354;-72
2023/01/21 09:51:41;;;;;;;;;;;;;;;;;;5031700;28;1377;-71
2023/01/21 09:54:30;;;;;;;;;;;;;;;;;;5031486;28;1190;-71
2023/01/21 09:57:11;;;;;;;;;;;;;;;;;;5023004;28;1434;-71
2023/01/21 09:59:55;;;;;;;;;;;;;;;;;;5032412;28;774;-71
2023/01/21 10:02:28;;;;;;;;;;;;;;;;;;5031015;28;1149;-71
2023/01/21 10:05:06;;;;;;;;;;;;;;;;;;5031090;28;1394;-72
2023/01/21 10:07:39;;;;;;;;;;;;;;;;;;5031349;28;1973;-71
2023/01/21 10:10:16;;;;;;;;;;;;;;;;;;5032131;28;893;-70
2023/01/21 10:13:00;;;;;;;;;;;;;;;;;;5031677;28;880;-70
2023/01/21 10:15:45;;;;;;;;;;;;;;;;;;5030924;28;1275;-71
2023/01/21 10:18:19;;;;;;;;;;;;;;;;;;5031804;28;849;-70
2023/01/21 10:20:53;;;;;;;;;;;;;;;;;;5032039;28;862;-71
2023/01/21 10:23:25;;;;;;;;;;;;;;;;;;5030654;28;1297;-71
2023/01/21 10:25:50;;;;;;;;;;;;;;;;;;5031263;28;932;-71
2023/01/21 10:28:19;;;;;;;;;;;;;;;;;;5030459;28;1898;-71
2023/01/21 10:30:47;;;;;;;;;;;;;;;;;;5031379;28;881;-71
2023/01/21 10:33:31;;;;;;;;;;;;;;;;;;5032229;28;904;-71
2023/01/21 10:36:09;;;;;;;;;;;;;;;;;;5030066;28;1366;-70
2023/01/21 10:38:49;;;;;;;;;;;;;;;;;;5030697;28;1192;-71
2023/01/21 10:41:32;;;;;;;;;;;;;;;;;;5031990;28;1046;-71
2023/01/21 10:44:07;;;;;;;;;;;;;;;;;;5030552;28;1316;-71
2023/01/21 10:46:41;;;;;;;;;;;;;;;;;;5030582;28;1894;-70
2023/01/21 10:49:21;;;;;;;;;;;;;;;;;;5031968;28;895;-71
2023/01/21 10:51:53;;;;;;;;;;;;;;;;;;5030723;28;1332;-70
2023/01/21 10:54:37;;;;;;;;;;;;;;;;;;5030862;28;1173;-70
2023/01/21 10:57:03;;;;;;;;;;;;;;;;;;5030286;28;1199;-70
2023/01/21 10:59:30;;;;;;;;;;;;;;;;;;5030345;28;1323;-70
2023/01/21 11:02:08;;;;;;;;;;;;;;;;;;5030327;28;1228;-70
2023/01/21 11:04:35;;;;;;;;;;;;;;;;;;5031011;28;1227;-71
2023/01/21 11:07:04;;;;;;;;;;;;;;;;;;5031643;28;1915;-70
2023/01/21 11:09:35;;;;;;;;;;;;;;;;;;5030874;28;1290;-70
2023/01/21 11:12:02;;;;;;;;;;;;;;;;;;5030468;28;1216;-70
2023/01/21 11:14:27;;;;;;;;;;;;;;;;;;5032450;28;806;-71
2023/01/21 11:16:53;;;;;;;;;;;;;;;;;;5031581;28;906;-70
2023/01/21 11:19:23;;;;;;;;;;;;;;;;;;5032102;28;759;-71
2023/01/21 11:22:01;;;;;;;;;;;;;;;;;;5030025;28;1397;-71
2023/01/21 11:24:28;;;;;;;;;;;;;;;;;;5031417;28;931;-71
2023/01/21 11:27:02;;;;;;;;;;;;;;;;;;5031172;28;1981;-70
2023/01/21 11:29:37;;;;;;;;;;;;;;;;;;5032443;28;1011;-70
2023/01/21 11:32:15;;;;;;;;;;;;;;;;;;5035188;28;869;-71
2023/01/21 11:34:45;;;;;;;;;;;;;;;;;;5034934;28;912;-70
2023/01/21 11:37:19;;;;;;;;;;;;;;;;;;5035116;28;817;-70
2023/01/21 11:39:53;;;;;;;;;;;;;;;;;;5034921;28;981;-70
2023/01/21 11:42:19;;;;;;;;;;;;;;;;;;5033954;28;1369;-71
2023/01/21 11:44:52;;;;;;;;;;;;;;;;;;5033654;28;1528;-70
2023/01/21 11:47:28;;;;;;;;;;;;;;;;;;5034925;28;1976;-71
2023/01/21 11:49:53;;;;;;;;;;;;;;;;;;5034087;28;779;-71
2023/01/21 11:52:19;;;;;;;;;;;;;;;;;;5033670;28;1295;-71
2023/01/21 11:54:45;;;;;;;;;;;;;;;;;;5016837;28;1082;-71
2023/01/21 11:57:19;;;;;;;;;;;;;;;;;;5034038;28;1143;-71
2023/01/21 11:59:46;;;;;;;;;;;;;;;;;;5034824;28;774;-71
2023/01/21 12:02:15;;;;;;;;;;;;;;;;;;5031493;28;1384;-71
2023/01/21 12:04:48;;;;;;;;;;;;;;;;;;5029996;28;1364;-71
2023/01/21 12:07:27;;;;;;;;;;;;;;;;;;5031595;28;1967;-71
2023/01/21 12:09:59;;;;;;;;;;;;;;;;;;5031136;28;1193;-71
2023/01/21 12:12:43;;;;;;;;;;;;;;;;;;5033144;28;1212;-71
2023/01/21 12:15:20;;;;;;;;;;;;;;;;;;5034588;28;1029;-71
2023/01/21 12:17:45;;;;;;;;;;;;;;;;;;5034526;28;900;-72
2023/01/21 12:20:11;;;;;;;;;;;;;;;;;;5033824;28;1458;-70
2023/01/21 12:22:48;;;;;;;;;;;;;;;;;;5034137;28;1300;-71
2023/01/21 12:25:24;;;;;;;;;;;;;;;;;;5033244;28;1477;-71
2023/01/21 12:27:59;;;;;;;;;;;;;;;;;;5034688;28;1906;-71
2023/01/21 12:30:31;;;;;;;;;;;;;;;;;;5033491;28;1170;-71
2023/01/21 12:33:02;;;;;;;;;;;;;;;;;;5032620;28;1314;-72
2023/01/21 12:35:32;;;;;;;;;;;;;;;;;;5033183;28;1311;-72
2023/01/21 12:38:05;;;;;;;;;;;;;;;;;;5033981;28;1053;-72
2023/01/21 12:40:40;;;;;;;;;;;;;;;;;;5032472;28;1279;-72
2023/01/21 12:43:11;;;;;;;;;;;;;;;;;;5033162;28;1046;-72
2023/01/21 12:45:40;;;;;;;;;;;;;;;;;;5033948;28;944;-72
2023/01/21 12:48:17;;;;;;;;;;;;;;;;;;5033348;28;1969;-72
2023/01/21 12:50:46;;;;;;;;;;;;;;;;;;5031807;28;1203;-72
2023/01/21 12:53:12;;;;;;;;;;;;;;;;;;5033350;28;994;-72
2023/01/21 12:55:37;;;;;;;;;;;;;;;;;;5032743;28;1355;-72
2023/01/21 12:58:04;;;;;;;;;;;;;;;;;;5031832;28;1385;-72
2023/01/21 13:00:34;;;;;;;;;;;;;;;;;;5032636;28;1477;-73
2023/01/21 13:03:06;;;;;;;;;;;;;;;;;;5031986;28;1314;-72
2023/01/21 13:05:34;;;;;;;;;;;;;;;;;;5031973;28;1505;-72
2023/01/21 13:08:18;;;;;;;;;;;;;;;;;;5031875;28;1886;-73
2023/01/21 13:10:46;;;;;;;;;;;;;;;;;;5031313;28;1314;-73
2023/01/21 13:13:19;;;;;;;;;;;;;;;;;;5033435;28;969;-73
2023/01/21 13:15:54;;;;;;;;;;;;;;;;;;5031854;28;1348;-73
2023/01/21 13:18:29;;;;;;;;;;;;;;;;;;5033528;28;820;-72
2023/01/21 13:20:57;;;;;;;;;;;;;;;;;;5031329;28;1195;-72
2023/01/21 13:23:22;;;;;;;;;;;;;;;;;;5031290;28;1390;-72
2023/01/21 13:25:55;;;;;;;;;;;;;;;;;;5031807;28;1205;-73
2023/01/21 13:28:56;;;;;;;;;;;;;;;;;;5033254;28;1973;-72
2023/01/21 13:31:32;;;;;;;;;;;;;;;;;;4975347;28;1632;-73
2023/01/21 13:33:57;;;;;;;;;;;;;;;;;;5025923;28;1159;-72
2023/01/21 13:36:30;;;;;;;;;;;;;;;;;;5032145;28;1216;-73
2023/01/21 13:39:02;;;;;;;;;;;;;;;;;;5033267;28;861;-72
2023/01/21 13:41:45;;;;;;;;;;;;;;;;;;5033493;28;880;-73
2023/01/21 13:44:13;;;;;;;;;;;;;;;;;;5032296;28;829;-72
2023/01/21 13:46:42;;;;;;;;;;;;;;;;;;5031299;28;1961;-73
2023/01/21 13:49:07;;;;;;;;;;;;;;;;;;5032536;28;932;-73
2023/01/21 13:51:52;;;;;;;;;;;;;;;;;;5032312;28;865;-72
2023/01/21 13:54:38;;;;;;;;;;;;;;;;;;5030492;28;1215;-73
2023/01/21 13:57:06;;;;;;;;;;;;;;;;;;5030345;28;1364;-72
2023/01/21 13:59:44;;;;;;;;;;;;;;;;;;5032739;28;1004;-72
2023/01/21 14:02:17;;;;;;;;;;;;;;;;;;5031620;28;1309;-73
2023/01/21 14:04:48;;;;;;;;;;;;;;;;;;5032289;28;995;-73
2023/01/21 14:07:17;;;;;;;;;;;;;;;;;;5030929;28;1965;-73
2023/01/21 14:09:46;;;;;;;;;;;;;;;;;;5032356;28;884;-73
2023/01/21 14:12:18;;;;;;;;;;;;;;;;;;5031853;28;1051;-73
2023/01/21 14:14:52;;;;;;;;;;;;;;;;;;5030684;28;1183;-73
2023/01/21 14:17:28;;;;;;;;;;;;;;;;;;5031771;28;860;-72
2023/01/21 14:20:02;;;;;;;;;;;;;;;;;;5030356;28;1295;-73
2023/01/21 14:22:54;;;;;;;;;;;;;;;;;;5031834;28;837;-72
2023/01/21 14:25:45;;;;;;;;;;;;;;;;;;5031862;28;932;-72
2023/01/21 14:28:19;;;;;;;;;;;;;;;;;;5031549;28;1914;-72
2023/01/21 14:30:48;;;;;;;;;;;;;;;;;;5031319;28;881;-72
2023/01/21 14:33:19;;;;;;;;;;;;;;;;;;5031391;28;833;-72
2023/01/21 14:35:44;;;;;;;;;;;;;;;;;;5031144;28;793;-72
2023/01/21 14:38:32;;;;;;;;;;;;;;;;;;5031557;28;833;-72
2023/01/21 14:41:05;;;;;;;;;;;;;;;;;;5030943;28;1248;-72
2023/01/21 14:43:30;;;;;;;;;;;;;;;;;;5030075;28;991;-72
2023/01/21 14:45:56;;;;;;;;;;;;;;;;;;5029138;28;1122;-72
2023/01/21 14:48:32;;;;;;;;;;;;;;;;;;5030071;28;1990;-72
2023/01/21 14:51:17;;;;;;;;;;;;;;;;;;5030089;28;1322;-72
2023/01/21 14:53:45;;;;;;;;;;;;;;;;;;5030727;28;1114;-72
2023/01/21 14:56:23;;;;;;;;;;;;;;;;;;5031055;28;860;-72
2023/01/21 14:58:50;;;;;;;;;;;;;;;;;;5031627;28;992;-72
2023/01/21 15:01:27;;;;;;;;;;;;;;;;;;5031423;28;987;-71
2023/01/21 15:03:53;;;;;;;;;;;;;;;;;;5031184;28;905;-71
2023/01/21 15:06:21;;;;;;;;;;;;;;;;;;5017196;28;1898;-71
2023/01/21 15:08:51;;;;;;;;;;;;;;;;;;5035226;28;1123;-71
2023/01/21 15:11:39;;;;;;;;;;;;;;;;;;5034027;28;1401;-72
2023/01/21 15:14:18;;;;;;;;;;;;;;;;;;5034608;28;849;-72
2023/01/21 15:16:45;;;;;;;;;;;;;;;;;;5033510;28;1292;-71
2023/01/21 15:19:19;;;;;;;;;;;;;;;;;;5034718;28;773;-71
2023/01/21 15:22:00;;;;;;;;;;;;;;;;;;5033440;28;1403;-71
2023/01/21 15:24:30;;;;;;;;;;;;;;;;;;5035315;28;931;-72
2023/01/21 15:27:14;;;;;;;;;;;;;;;;;;5035048;28;1902;-71
2023/01/21 15:29:42;;;;;;;;;;;;;;;;;;5035101;28;1092;-72
2023/01/21 15:32:16;;;;;;;;;;;;;;;;;;5033531;28;1325;-71
2023/01/21 15:34:43;;;;;;;;;;;;;;;;;;5033727;28;1225;-71
2023/01/21 15:37:15;;;;;;;;;;;;;;;;;;5035450;28;888;-70
2023/01/21 15:39:42;;;;;;;;;;;;;;;;;;5035766;28;1256;-69
2023/01/21 15:42:23;;;;;;;;;;;;;;;;;;5016923;28;1251;-68
2023/01/21 15:44:53;;;;;;;;;;;;;;;;;;5034960;28;825;-69
2023/01/21 15:47:18;;;;;;;;;;;;;;;;;;5033540;28;1882;-66
2023/01/21 15:49:52;;;;;;;;;;;;;;;;;;5033603;28;1212;-69
2023/01/21 15:52:25;;;;;;;;;;;;;;;;;;5033474;28;1302;-66
2023/01/21 15:54:50;;;;;;;;;;;;;;;;;;5034954;28;835;-67
2023/01/21 15:57:15;;;;;;;;;;;;;;;;;;5033376;28;1338;-66
2023/01/21 15:59:40;;;;;;;;;;;;;;;;;;5033695;28;1158;-67
2023/01/21 16:02:13;;;;;;;;;;;;;;;;;;5033769;28;900;-67
2023/01/21 16:04:45;;;;;;;;;;;;;;;;;;5034510;28;888;-67
2023/01/21 16:07:14;;;;;;;;;;;;;;;;;;5034356;28;1968;-67
2023/01/21 16:09:55;;;;;;;;;;;;;;;;;;5032750;28;1263;-68
2023/01/21 16:12:20;;;;;;;;;;;;;;;;;;5033921;28;1350;-67
2023/01/21 16:14:52;;;;;;;;;;;;;;;;;;5033015;28;1263;-70
2023/01/21 16:17:17;;;;;;;;;;;;;;;;;;5032342;28;1066;-70
2023/01/21 16:19:46;;;;;;;;;;;;;;;;;;5034052;28;916;-70
2023/01/21 16:22:14;;;;;;;;;;;;;;;;;;5033959;28;903;-70
2023/01/21 16:24:43;;;;;;;;;;;;;;;;;;5033211;28;1535;-70
2023/01/21 16:27:19;;;;;;;;;;;;;;;;;;5032413;28;1953;-70
2023/01/21 16:29:44;;;;;;;;;;;;;;;;;;5034378;28;905;-70
2023/01/21 16:32:17;;;;;;;;;;;;;;;;;;5032800;28;817;-70
2023/01/21 16:34:42;;;;;;;;;;;;;;;;;;5034420;28;1092;-71
2023/01/21 16:37:15;;;;;;;;;;;;;;;;;;5032492;28;1343;-70
2023/01/21 16:39:47;;;;;;;;;;;;;;;;;;5032891;28;1215;-70
2023/01/21 16:42:29;;;;;;;;;;;;;;;;;;5032362;28;1050;-70
2023/01/21 16:44:54;;;;;;;;;;;;;;;;;;5032106;28;1234;-70
2023/01/21 16:47:24;;;;;;;;;;;;;;;;;;5032524;28;1902;-70
2023/01/21 16:49:50;;;;;;;;;;;;;;;;;;5032855;28;1322;-70
2023/01/21 16:52:18;;;;;;;;;;;;;;;;;;5015885;28;1210;-71
2023/01/21 16:54:48;;;;;;;;;;;;;;;;;;5034631;28;827;-70
2023/01/21 16:57:17;;;;;;;;;;;;;;;;;;5032455;28;1261;-71
2023/01/21 16:59:43;;;;;;;;;;;;;;;;;;5035295;28;942;-71
2023/01/21 17:02:24;;;;;;;;;;;;;;;;;;5033357;28;1266;-71
2023/01/21 17:04:49;;;;;;;;;;;;;;;;;;5035256;28;919;-71
2023/01/21 17:07:17;;;;;;;;;;;;;;;;;;5016259;28;1922;-70
2023/01/21 17:09:42;;;;;;;;;;;;;;;;;;5035109;28;1188;-71
2023/01/21 17:12:09;;;;;;;;;;;;;;;;;;5032878;28;1310;-71
2023/01/21 17:14:35;;;;;;;;;;;;;;;;;;5032722;28;1076;-71
2023/01/21 17:17:02;;;;;;;;;;;;;;;;;;5016285;28;1239;-70
2023/01/21 17:19:28;;;;;;;;;;;;;;;;;;5034222;28;807;-70
2023/01/21 17:21:57;;;;;;;;;;;;;;;;;;5035285;28;864;-71
2023/01/21 17:24:24;;;;;;;;;;;;;;;;;;5036800;28;766;-70
2023/01/21 17:26:52;;;;;;;;;;;;;;;;;;5033601;28;1910;-70
2023/01/21 17:29:19;;;;;;;;;;;;;;;;;;5034847;28;967;-71